Time;durP1;ratioP1;P1;durP2;ratioP2;P2;SDS_P1;SDS_P2;PMS_P1;PMS_P2;Temp;Humidity;BMP_temperature;BMP_pressure;BME280_temperature;BME280_humidity;BME280_pressure;Samples;Min_cycle;Max_cycle;Signal;HPM_P1;HPM_P2
2021/08/05 00:01:06;;;;;;;0.40;0.40;;;;;;;;;;5042177;28;20057;-62
2021/08/05 00:03:32;;;;;;;0.80;0.60;;;;;;;;;;5026512;28;20021;-62
2021/08/05 00:05:59;;;;;;;0.88;0.88;;;;;;;;;;5025280;28;20051;-62
2021/08/05 00:08:26;;;;;;;0.80;0.80;;;;;;;;;;5025732;28;20607;-63
2021/08/05 00:10:52;;;;;;;0.75;0.68;;;;;;;;;;5025202;28;20029;-63
2021/08/05 00:13:18;;;;;;;0.60;0.60;;;;;;;;;;5024951;28;20035;-62
2021/08/05 00:15:45;;;;;;;1.90;0.80;;;;;;;;;;5023994;28;20029;-62
2021/08/05 00:18:11;;;;;;;1.30;0.95;;;;;;;;;;5024657;28;20029;-62
2021/08/05 00:20:37;;;;;;;1.58;1.20;;;;;;;;;;5025975;28;20037;-62
2021/08/05 00:23:03;;;;;;;0.90;0.90;;;;;;;;;;5026072;28;20033;-62
2021/08/05 00:25:30;;;;;;;1.08;0.98;;;;;;;;;;5026658;28;20116;-62
2021/08/05 00:27:56;;;;;;;0.90;0.90;;;;;;;;;;5026962;28;20514;-62
2021/08/05 00:30:22;;;;;;;0.82;0.82;;;;;;;;;;5026565;28;20600;-62
2021/08/05 00:32:48;;;;;;;0.90;0.90;;;;;;;;;;5026251;28;20024;-62
2021/08/05 00:35:14;;;;;;;0.73;0.73;;;;;;;;;;5026675;28;20108;-62
2021/08/05 00:37:40;;;;;;;0.77;0.77;;;;;;;;;;5026099;28;20441;-63
2021/08/05 00:40:07;;;;;;;0.75;0.75;;;;;;;;;;5039126;28;20431;-63
2021/08/05 00:42:33;;;;;;;0.90;0.80;;;;;;;;;;5046405;28;20025;-63
2021/08/05 00:44:59;;;;;;;0.77;0.70;;;;;;;;;;5034861;28;20072;-63
2021/08/05 00:47:29;;;;;;;1.00;0.90;;;;;;;;;;5033366;28;20021;-62
2021/08/05 00:49:58;;;;;;;1.08;0.88;;;;;;;;;;5045228;28;20040;-63
2021/08/05 00:52:24;;;;;;;0.60;0.60;;;;;;;;;;5053472;28;20103;-63
2021/08/05 00:54:50;;;;;;;0.70;0.63;;;;;;;;;;5052487;28;20029;-63
2021/08/05 00:57:16;;;;;;;0.80;0.70;;;;;;;;;;5052716;28;20029;-63
2021/08/05 00:59:42;;;;;;;0.70;0.70;;;;;;;;;;5051959;28;20056;-63
2021/08/05 01:02:10;;;;;;;0.60;0.60;;;;;;;;;;5050233;28;20108;-63
2021/08/05 01:04:36;;;;;;;0.50;0.50;;;;;;;;;;5049283;28;20025;-63
2021/08/05 01:07:15;;;;;;;1.23;0.70;;;;;;;;;;5052341;28;20078;-63
2021/08/05 01:09:47;;;;;;;0.60;0.60;;;;;;;;;;5043395;28;20047;-63
2021/08/05 01:12:13;;;;;;;1.50;0.70;;;;;;;;;;5032685;28;20047;-63
2021/08/05 01:14:41;;;;;;;1.35;0.82;;;;;;;;;;5032978;28;20681;-63
2021/08/05 01:17:08;;;;;;;0.85;0.80;;;;;;;;;;5032210;28;20025;-63
2021/08/05 01:19:40;;;;;;;0.75;0.70;;;;;;;;;;5040991;28;20033;-63
2021/08/05 01:22:24;;;;;;;0.85;0.75;;;;;;;;;;5051667;28;20094;-63
2021/08/05 01:24:57;;;;;;;0.68;0.68;;;;;;;;;;5052385;28;20112;-63
2021/08/05 01:27:25;;;;;;;1.20;0.70;;;;;;;;;;5052094;28;20075;-63
2021/08/05 01:29:52;;;;;;;1.27;0.50;;;;;;;;;;5040642;28;20547;-63
2021/08/05 01:32:19;;;;;;;0.50;0.50;;;;;;;;;;5037868;28;20064;-63
2021/08/05 01:34:46;;;;;;;0.63;0.63;;;;;;;;;;5052530;28;20523;-63
2021/08/05 01:37:12;;;;;;;0.70;0.70;;;;;;;;;;5051387;28;20020;-63
2021/08/05 01:39:40;;;;;;;0.60;0.50;;;;;;;;;;5039760;28;20060;-63
2021/08/05 01:42:07;;;;;;;0.43;0.43;;;;;;;;;;5031915;28;20061;-63
2021/08/05 01:44:33;;;;;;;0.50;0.50;;;;;;;;;;5049298;28;20033;-63
2021/08/05 01:47:00;;;;;;;0.68;0.63;;;;;;;;;;5051999;28;20021;-63
2021/08/05 01:49:27;;;;;;;0.40;0.40;;;;;;;;;;5042313;28;20038;-63
2021/08/05 01:51:53;;;;;;;1.00;0.70;;;;;;;;;;5032991;28;20029;-63
2021/08/05 01:54:20;;;;;;;0.68;0.60;;;;;;;;;;5032553;28;20459;-63
2021/08/05 01:56:46;;;;;;;0.60;0.60;;;;;;;;;;5028933;28;20112;-63
2021/08/05 01:59:12;;;;;;;0.70;0.70;;;;;;;;;;5028839;28;20442;-63
2021/08/05 02:01:38;;;;;;;0.77;0.68;;;;;;;;;;5029188;28;20092;-63
2021/08/05 02:04:07;;;;;;;0.50;0.50;;;;;;;;;;5028902;28;20030;-63
2021/08/05 02:06:35;;;;;;;0.60;0.60;;;;;;;;;;5032695;28;20031;-63
2021/08/05 02:09:22;;;;;;;0.65;0.65;;;;;;;;;;5042240;28;20033;-63
2021/08/05 02:11:49;;;;;;;0.60;0.60;;;;;;;;;;5029283;28;20551;-63
2021/08/05 02:14:17;;;;;;;0.60;0.60;;;;;;;;;;5028889;28;20111;-63
2021/08/05 02:16:45;;;;;;;0.68;0.68;;;;;;;;;;5029127;28;20083;-62
2021/08/05 02:19:13;;;;;;;0.75;0.75;;;;;;;;;;5028211;28;20037;-62
2021/08/05 02:21:41;;;;;;;0.70;0.70;;;;;;;;;;5028978;28;20037;-63
2021/08/05 02:24:07;;;;;;;1.83;0.57;;;;;;;;;;5027835;28;20078;-63
2021/08/05 02:26:33;;;;;;;0.70;0.70;;;;;;;;;;5029004;28;20022;-63
2021/08/05 02:28:59;;;;;;;1.17;0.75;;;;;;;;;;5032933;28;20530;-63
2021/08/05 02:31:25;;;;;;;0.90;0.90;;;;;;;;;;5049311;28;20033;-63
2021/08/05 02:33:52;;;;;;;0.80;0.80;;;;;;;;;;5047305;28;20040;-63
2021/08/05 02:36:18;;;;;;;0.70;0.70;;;;;;;;;;5028881;28;20982;-63
2021/08/05 02:38:44;;;;;;;0.60;0.60;;;;;;;;;;5028084;28;20419;-63
2021/08/05 02:41:11;;;;;;;0.80;0.80;;;;;;;;;;5028261;28;20041;-63
2021/08/05 02:43:38;;;;;;;0.63;0.57;;;;;;;;;;5028161;28;20530;-63
2021/08/05 02:46:05;;;;;;;0.65;0.65;;;;;;;;;;5028259;28;20021;-63
2021/08/05 02:48:33;;;;;;;0.93;0.70;;;;;;;;;;5028251;28;20033;-63
2021/08/05 02:51:00;;;;;;;0.82;0.82;;;;;;;;;;5028304;28;20026;-63
2021/08/05 02:53:27;;;;;;;0.82;0.82;;;;;;;;;;5029137;28;20052;-63
2021/08/05 02:55:54;;;;;;;0.70;0.70;;;;;;;;;;5028433;28;20112;-63
2021/08/05 02:58:20;;;;;;;1.00;0.80;;;;;;;;;;5027880;28;20033;-63
2021/08/05 03:00:46;;;;;;;0.80;0.80;;;;;;;;;;5045586;28;20408;-63
2021/08/05 03:03:13;;;;;;;0.70;0.70;;;;;;;;;;5038347;28;20379;-63
2021/08/05 03:05:40;;;;;;;0.73;0.73;;;;;;;;;;5028195;28;20480;-63
2021/08/05 03:08:07;;;;;;;0.85;0.60;;;;;;;;;;5027834;28;20095;-63
2021/08/05 03:10:33;;;;;;;0.80;0.80;;;;;;;;;;5027724;28;20025;-63
2021/08/05 03:12:59;;;;;;;0.57;0.57;;;;;;;;;;5027921;28;20025;-62
2021/08/05 03:15:25;;;;;;;0.93;0.90;;;;;;;;;;5028355;28;20415;-62
2021/08/05 03:17:52;;;;;;;0.98;0.90;;;;;;;;;;5028144;28;20036;-62
2021/08/05 03:20:18;;;;;;;0.88;0.82;;;;;;;;;;5026535;28;20247;-62
2021/08/05 03:22:45;;;;;;;0.65;0.60;;;;;;;;;;5027301;28;20029;-62
2021/08/05 03:25:12;;;;;;;1.38;0.80;;;;;;;;;;5027244;28;20084;-63
2021/08/05 03:27:40;;;;;;;1.02;1.00;;;;;;;;;;5026447;28;20032;-63
2021/08/05 03:30:07;;;;;;;0.82;0.82;;;;;;;;;;5032479;28;20032;-63
2021/08/05 03:32:33;;;;;;;0.80;0.80;;;;;;;;;;5045875;28;20029;-63
2021/08/05 03:35:00;;;;;;;0.80;0.80;;;;;;;;;;5046150;28;20533;-63
2021/08/05 03:37:26;;;;;;;1.10;0.80;;;;;;;;;;5046218;28;20436;-63
2021/08/05 03:39:52;;;;;;;1.00;0.85;;;;;;;;;;5039941;28;20032;-63
2021/08/05 03:42:18;;;;;;;0.80;0.80;;;;;;;;;;5025899;28;20121;-63
2021/08/05 03:44:44;;;;;;;0.80;0.80;;;;;;;;;;5025941;28;20069;-62
2021/08/05 03:47:10;;;;;;;1.02;0.93;;;;;;;;;;5025851;28;20025;-63
2021/08/05 03:49:36;;;;;;;0.82;0.80;;;;;;;;;;5038436;28;20135;-63
2021/08/05 03:52:02;;;;;;;2.03;1.10;;;;;;;;;;5025900;28;20484;-63
2021/08/05 03:54:28;;;;;;;0.80;0.80;;;;;;;;;;5025416;28;20099;-63
2021/08/05 03:56:54;;;;;;;1.02;1.00;;;;;;;;;;5026132;28;20029;-63
2021/08/05 03:59:20;;;;;;;0.85;0.85;;;;;;;;;;5025213;28;20075;-63
2021/08/05 04:01:46;;;;;;;0.80;0.80;;;;;;;;;;5025833;28;20430;-63
2021/08/05 04:04:12;;;;;;;0.90;0.90;;;;;;;;;;5025703;28;20022;-63
2021/08/05 04:06:38;;;;;;;0.77;0.77;;;;;;;;;;5025400;28;20237;-63
2021/08/05 04:09:04;;;;;;;0.95;0.85;;;;;;;;;;5025683;28;20025;-63
2021/08/05 04:11:30;;;;;;;0.73;0.73;;;;;;;;;;5025331;28;20025;-63
2021/08/05 04:13:57;;;;;;;0.70;0.70;;;;;;;;;;5025641;28;20040;-63
2021/08/05 04:16:23;;;;;;;0.75;0.75;;;;;;;;;;5024673;28;20033;-63
2021/08/05 04:18:49;;;;;;;0.80;0.80;;;;;;;;;;5025356;28;20418;-62
2021/08/05 04:21:16;;;;;;;0.75;0.75;;;;;;;;;;5024710;28;20044;-63
2021/08/05 04:23:42;;;;;;;0.80;0.80;;;;;;;;;;5024717;28;20053;-63
2021/08/05 04:26:08;;;;;;;0.80;0.80;;;;;;;;;;5024851;28;20069;-62
2021/08/05 04:28:35;;;;;;;0.73;0.73;;;;;;;;;;5024988;28;20477;-63
2021/08/05 04:31:01;;;;;;;0.70;0.70;;;;;;;;;;5025281;28;20164;-63
2021/08/05 04:33:27;;;;;;;0.98;0.88;;;;;;;;;;5025564;28;20507;-63
2021/08/05 04:35:53;;;;;;;1.08;1.00;;;;;;;;;;5026393;28;20624;-62
2021/08/05 04:38:19;;;;;;;0.70;0.70;;;;;;;;;;5030117;28;20020;-62
2021/08/05 04:40:46;;;;;;;0.80;0.80;;;;;;;;;;5044333;28;20074;-62
2021/08/05 04:43:12;;;;;;;0.68;0.68;;;;;;;;;;5046477;28;20025;-62
2021/08/05 04:45:38;;;;;;;0.70;0.70;;;;;;;;;;5044689;28;20025;-62
2021/08/05 04:48:08;;;;;;;0.63;0.60;;;;;;;;;;5042603;28;20025;-62
2021/08/05 04:50:35;;;;;;;0.73;0.73;;;;;;;;;;5025948;28;20038;-62
2021/08/05 04:53:02;;;;;;;0.70;0.70;;;;;;;;;;5025701;28;20037;-62
2021/08/05 04:55:28;;;;;;;0.60;0.60;;;;;;;;;;5026769;28;20498;-62
2021/08/05 04:58:05;;;;;;;0.50;0.50;;;;;;;;;;5026520;28;20026;-62
2021/08/05 05:00:34;;;;;;;0.60;0.60;;;;;;;;;;5026320;28;20036;-62
2021/08/05 05:03:00;;;;;;;0.70;0.70;;;;;;;;;;5026428;28;20025;-62
2021/08/05 05:05:27;;;;;;;0.70;0.70;;;;;;;;;;5026738;28;20025;-62
2021/08/05 05:07:53;;;;;;;0.75;0.75;;;;;;;;;;5026445;28;20515;-62
2021/08/05 05:10:21;;;;;;;0.60;0.60;;;;;;;;;;5040415;28;20030;-62
2021/08/05 05:12:47;;;;;;;0.52;0.52;;;;;;;;;;5026271;28;20116;-62
2021/08/05 05:15:14;;;;;;;0.73;0.73;;;;;;;;;;5026316;28;20029;-62
2021/08/05 05:17:41;;;;;;;0.90;0.60;;;;;;;;;;5026360;28;20025;-62
2021/08/05 05:20:07;;;;;;;0.60;0.60;;;;;;;;;;5025998;28;20040;-62
2021/08/05 05:22:33;;;;;;;0.63;0.63;;;;;;;;;;5025361;28;20041;-62
2021/08/05 05:25:00;;;;;;;0.60;0.60;;;;;;;;;;5026055;28;20502;-62
2021/08/05 05:27:26;;;;;;;0.50;0.50;;;;;;;;;;5026616;28;20519;-62
2021/08/05 05:30:00;;;;;;;0.60;0.60;;;;;;;;;;5025667;28;20028;-62
2021/08/05 05:32:28;;;;;;;0.50;0.50;;;;;;;;;;5030093;28;20044;-62
2021/08/05 05:34:55;;;;;;;0.50;0.50;;;;;;;;;;5030420;28;20036;-62
2021/08/05 05:37:22;;;;;;;0.63;0.63;;;;;;;;;;5029555;28;20969;-62
2021/08/05 05:39:49;;;;;;;0.60;0.60;;;;;;;;;;5029180;28;20029;-62
2021/08/05 05:42:15;;;;;;;0.55;0.50;;;;;;;;;;5029249;28;20022;-62
2021/08/05 05:44:41;;;;;;;0.63;0.63;;;;;;;;;;5029589;28;20737;-62
2021/08/05 05:47:07;;;;;;;0.60;0.60;;;;;;;;;;5029599;28;20485;-62
2021/08/05 05:49:33;;;;;;;0.40;0.40;;;;;;;;;;5041576;28;20032;-62
2021/08/05 05:51:59;;;;;;;0.70;0.70;;;;;;;;;;5049344;28;20072;-62
2021/08/05 05:54:25;;;;;;;0.63;0.63;;;;;;;;;;5049608;28;20040;-62
2021/08/05 05:56:51;;;;;;;0.70;0.70;;;;;;;;;;5049498;28;20495;-62
2021/08/05 05:59:18;;;;;;;0.60;0.60;;;;;;;;;;5039224;28;20082;-62
2021/08/05 06:01:44;;;;;;;0.40;0.40;;;;;;;;;;5041338;28;20032;-62
2021/08/05 06:04:10;;;;;;;0.60;0.60;;;;;;;;;;5049210;28;20383;-63
2021/08/05 06:06:36;;;;;;;1.13;1.02;;;;;;;;;;5048635;28;20033;-62
2021/08/05 06:09:02;;;;;;;0.70;0.70;;;;;;;;;;5046848;28;20522;-62
2021/08/05 06:11:29;;;;;;;0.55;0.55;;;;;;;;;;5035653;28;20391;-61
2021/08/05 06:13:55;;;;;;;0.60;0.60;;;;;;;;;;5029414;28;20027;-62
2021/08/05 06:16:22;;;;;;;0.45;0.45;;;;;;;;;;5028777;28;20116;-62
2021/08/05 06:18:48;;;;;;;0.38;0.38;;;;;;;;;;5034539;28;20021;-62
2021/08/05 06:21:14;;;;;;;0.50;0.50;;;;;;;;;;5035803;28;20029;-62
2021/08/05 06:23:41;;;;;;;0.60;0.60;;;;;;;;;;5028393;28;20072;-62
2021/08/05 06:26:07;;;;;;;0.30;0.30;;;;;;;;;;5046450;28;20024;-62
2021/08/05 06:28:33;;;;;;;0.35;0.35;;;;;;;;;;5048348;28;20052;-62
2021/08/05 06:31:02;;;;;;;0.60;0.60;;;;;;;;;;5043114;28;20025;-62
2021/08/05 06:33:28;;;;;;;0.40;0.40;;;;;;;;;;5037702;28;20025;-62
2021/08/05 06:35:54;;;;;;;0.35;0.35;;;;;;;;;;5034856;28;20443;-62
2021/08/05 06:38:21;;;;;;;0.40;0.40;;;;;;;;;;5041423;28;20035;-62
2021/08/05 06:40:47;;;;;;;0.30;0.30;;;;;;;;;;5048619;28;20509;-63
2021/08/05 06:43:13;;;;;;;0.25;0.25;;;;;;;;;;5026859;28;20060;-63
2021/08/05 06:45:39;;;;;;;0.35;0.35;;;;;;;;;;5043825;28;20047;-62
2021/08/05 06:48:06;;;;;;;0.40;0.40;;;;;;;;;;5046611;28;20033;-62
2021/08/05 06:50:32;;;;;;;0.30;0.30;;;;;;;;;;5047217;28;20028;-62
2021/08/05 06:52:58;;;;;;;0.40;0.40;;;;;;;;;;5048844;28;20024;-62
2021/08/05 06:55:24;;;;;;;0.40;0.40;;;;;;;;;;5047584;28;20056;-62
2021/08/05 06:57:50;;;;;;;0.25;0.25;;;;;;;;;;5047212;28;20052;-62
2021/08/05 07:00:16;;;;;;;0.20;0.20;;;;;;;;;;5045481;28;20029;-62
2021/08/05 07:02:42;;;;;;;0.30;0.30;;;;;;;;;;5047173;28;20025;-62
2021/08/05 07:05:10;;;;;;;0.30;0.30;;;;;;;;;;5044368;28;20383;-62
2021/08/05 07:07:36;;;;;;;0.25;0.25;;;;;;;;;;5047720;28;20037;-62
2021/08/05 07:10:03;;;;;;;0.30;0.30;;;;;;;;;;5033606;28;20041;-62
2021/08/05 07:12:30;;;;;;;0.30;0.30;;;;;;;;;;5027216;28;20048;-62
2021/08/05 07:14:56;;;;;;;0.45;0.20;;;;;;;;;;5028654;28;20034;-62
2021/08/05 07:17:22;;;;;;;0.20;0.20;;;;;;;;;;5027919;28;20459;-62
2021/08/05 07:19:48;;;;;;;0.20;0.20;;;;;;;;;;5027846;28;20814;-61
2021/08/05 07:22:14;;;;;;;0.10;0.10;;;;;;;;;;5029481;28;20109;-61
2021/08/05 07:24:40;;;;;;;0.20;0.20;;;;;;;;;;5032116;28;20040;-62
2021/08/05 07:27:07;;;;;;;0.13;0.13;;;;;;;;;;5033969;28;20074;-61
2021/08/05 07:29:33;;;;;;;0.20;0.20;;;;;;;;;;5041506;28;20039;-62
2021/08/05 07:32:03;;;;;;;0.10;0.10;;;;;;;;;;5038899;28;20020;-62
2021/08/05 07:34:29;;;;;;;0.20;0.20;;;;;;;;;;5040565;28;20503;-62
2021/08/05 07:36:55;;;;;;;0.10;0.10;;;;;;;;;;5058507;28;20028;-62
2021/08/05 07:39:21;;;;;;;0.20;0.20;;;;;;;;;;5034834;28;20046;-62
2021/08/05 07:41:47;;;;;;;0.20;0.20;;;;;;;;;;5043727;28;20033;-62
2021/08/05 07:44:13;;;;;;;0.30;0.30;;;;;;;;;;5046374;28;20032;-61
2021/08/05 07:46:40;;;;;;;0.20;0.20;;;;;;;;;;5047990;28;20099;-61
2021/08/05 07:49:06;;;;;;;0.20;0.20;;;;;;;;;;5047606;28;20506;-62
2021/08/05 07:51:32;;;;;;;0.20;0.20;;;;;;;;;;5041223;28;20037;-61
2021/08/05 07:53:59;;;;;;;0.20;0.20;;;;;;;;;;5043659;28;20033;-61
2021/08/05 07:56:25;;;;;;;0.20;0.20;;;;;;;;;;5046068;28;20403;-60
2021/08/05 07:58:51;;;;;;;0.60;0.60;;;;;;;;;;5027891;28;20140;-61
2021/08/05 08:01:17;;;;;;;0.47;0.47;;;;;;;;;;5028591;28;20399;-61
2021/08/05 08:03:43;;;;;;;0.65;0.55;;;;;;;;;;5027641;28;20033;-60
2021/08/05 08:06:09;;;;;;;0.47;0.47;;;;;;;;;;5027588;28;20476;-62
2021/08/05 08:08:35;;;;;;;1.10;0.60;;;;;;;;;;5044412;28;20076;-61
2021/08/05 08:11:01;;;;;;;0.60;0.60;;;;;;;;;;5046625;28;20060;-61
2021/08/05 08:13:30;;;;;;;0.43;0.43;;;;;;;;;;5044360;28;20389;-60
2021/08/05 08:15:58;;;;;;;0.93;0.75;;;;;;;;;;5032732;28;20116;-60
2021/08/05 08:18:25;;;;;;;0.47;0.47;;;;;;;;;;5037927;28;20029;-59
2021/08/05 08:20:51;;;;;;;0.60;0.60;;;;;;;;;;5034578;28;20036;-59
2021/08/05 08:23:17;;;;;;;0.63;0.40;;;;;;;;;;5033009;28;20403;-60
2021/08/05 08:25:43;;;;;;;0.65;0.40;;;;;;;;;;5045655;28;20075;-60
2021/08/05 08:28:10;;;;;;;0.50;0.50;;;;;;;;;;5046327;28;20060;-60
2021/08/05 08:30:37;;;;;;;0.30;0.30;;;;;;;;;;5041954;28;20063;-59
2021/08/05 08:33:03;;;;;;;0.40;0.40;;;;;;;;;;5035588;28;20084;-60
2021/08/05 08:35:29;;;;;;;0.20;0.20;;;;;;;;;;5025540;28;20037;-60
2021/08/05 08:37:55;;;;;;;0.30;0.30;;;;;;;;;;5027502;28;20041;-60
2021/08/05 08:40:22;;;;;;;0.70;0.30;;;;;;;;;;5026304;28;20017;-60
2021/08/05 08:42:48;;;;;;;0.30;0.30;;;;;;;;;;5039918;28;20074;-59
2021/08/05 08:45:15;;;;;;;0.20;0.20;;;;;;;;;;5038774;28;20423;-59
2021/08/05 08:47:43;;;;;;;0.20;0.20;;;;;;;;;;5029322;28;20029;-58
2021/08/05 08:50:10;;;;;;;0.30;0.30;;;;;;;;;;5044270;28;20037;-58
2021/08/05 08:52:36;;;;;;;0.20;0.20;;;;;;;;;;5033054;28;20069;-59
2021/08/05 08:55:04;;;;;;;0.28;0.28;;;;;;;;;;5023658;28;20415;-57
2021/08/05 08:57:35;;;;;;;0.30;0.30;;;;;;;;;;5024018;28;20033;-58
2021/08/05 09:00:03;;;;;;;0.20;0.20;;;;;;;;;;5042288;28;20483;-58
2021/08/05 09:02:31;;;;;;;0.25;0.25;;;;;;;;;;5042672;28;20511;-58
2021/08/05 09:04:57;;;;;;;0.20;0.20;;;;;;;;;;5034796;28;20021;-58
2021/08/05 09:07:24;;;;;;;0.32;0.32;;;;;;;;;;5029586;28;20080;-58
2021/08/05 09:09:51;;;;;;;0.40;0.40;;;;;;;;;;5026625;28;20045;-58
2021/08/05 09:12:17;;;;;;;1.75;0.20;;;;;;;;;;5045022;28;20447;-58
2021/08/05 09:14:44;;;;;;;0.20;0.20;;;;;;;;;;5047946;28;20029;-58
2021/08/05 09:17:27;;;;;;;0.22;0.22;;;;;;;;;;5045388;28;20029;-58
2021/08/05 09:19:55;;;;;;;0.20;0.20;;;;;;;;;;5028878;28;20419;-58
2021/08/05 09:22:41;;;;;;;0.20;0.20;;;;;;;;;;5027098;28;20435;-59
2021/08/05 09:25:26;;;;;;;0.30;0.17;;;;;;;;;;5044557;28;20029;-58
2021/08/05 09:27:53;;;;;;;0.25;0.20;;;;;;;;;;5047908;28;20494;-58
2021/08/05 09:30:29;;;;;;;0.20;0.20;;;;;;;;;;5042369;28;20652;-59
2021/08/05 09:32:57;;;;;;;0.10;0.10;;;;;;;;;;5035020;28;20040;-58
2021/08/05 09:35:28;;;;;;;0.10;0.10;;;;;;;;;;5027998;28;20026;-58
2021/08/05 09:37:54;;;;;;;0.17;0.17;;;;;;;;;;5034089;28;20025;-58
2021/08/05 09:40:20;;;;;;;0.20;0.20;;;;;;;;;;5033822;28;20082;-58
2021/08/05 09:42:56;;;;;;;0.20;0.20;;;;;;;;;;5039040;28;20029;-58
2021/08/05 09:45:35;;;;;;;0.10;0.10;;;;;;;;;;5029169;28;20045;-58
2021/08/05 09:48:01;;;;;;;0.10;0.10;;;;;;;;;;5030301;28;20036;-58
2021/08/05 09:50:27;;;;;;;0.10;0.10;;;;;;;;;;5029386;28;20053;-59
2021/08/05 09:53:06;;;;;;;0.20;0.20;;;;;;;;;;5029458;28;20030;-58
2021/08/05 09:55:33;;;;;;;0.20;0.20;;;;;;;;;;5028554;28;20025;-57
2021/08/05 09:58:00;;;;;;;0.20;0.20;;;;;;;;;;5039088;28;20068;-58
2021/08/05 10:00:26;;;;;;;0.30;0.30;;;;;;;;;;5047243;28;20021;-57
2021/08/05 10:02:53;;;;;;;0.20;0.20;;;;;;;;;;5039943;28;20707;-57
2021/08/05 10:05:21;;;;;;;0.30;0.30;;;;;;;;;;5028730;28;20025;-57
2021/08/05 10:07:51;;;;;;;0.30;0.30;;;;;;;;;;5029099;28;20416;-57
2021/08/05 10:10:18;;;;;;;0.22;0.22;;;;;;;;;;5028313;28;20778;-57
2021/08/05 10:12:54;;;;;;;0.50;0.30;;;;;;;;;;5028735;28;20688;-57
2021/08/05 10:15:21;;;;;;;0.30;0.30;;;;;;;;;;5028512;28;20068;-57
2021/08/05 10:17:52;;;;;;;0.43;0.30;;;;;;;;;;5036979;28;20033;-57
2021/08/05 10:20:19;;;;;;;0.40;0.40;;;;;;;;;;5045834;28;20025;-57
2021/08/05 10:22:45;;;;;;;0.30;0.30;;;;;;;;;;5047519;28;20036;-57
2021/08/05 10:25:12;;;;;;;0.20;0.20;;;;;;;;;;5047822;28;20055;-57
2021/08/05 10:27:39;;;;;;;0.20;0.20;;;;;;;;;;5028117;28;20025;-58
2021/08/05 10:30:09;;;;;;;0.30;0.30;;;;;;;;;;5048395;28;20143;-58
2021/08/05 10:32:35;;;;;;;0.30;0.30;;;;;;;;;;5047476;28;20064;-57
2021/08/05 10:35:01;;;;;;;0.30;0.30;;;;;;;;;;5045576;28;20044;-57
2021/08/05 10:37:27;;;;;;;0.20;0.20;;;;;;;;;;5029033;28;20048;-58
2021/08/05 10:39:53;;;;;;;0.60;0.45;;;;;;;;;;5029222;28;20064;-58
2021/08/05 10:42:20;;;;;;;0.65;0.40;;;;;;;;;;5028361;28;20033;-58
2021/08/05 10:44:48;;;;;;;0.35;0.35;;;;;;;;;;5028473;28;20155;-57
2021/08/05 10:47:34;;;;;;;0.40;0.40;;;;;;;;;;5030072;28;20025;-57
2021/08/05 10:50:05;;;;;;;1.05;0.40;;;;;;;;;;5036569;28;20659;-58
2021/08/05 10:52:37;;;;;;;0.50;0.47;;;;;;;;;;5035330;28;20033;-57
2021/08/05 10:55:04;;;;;;;0.40;0.40;;;;;;;;;;5034011;28;20033;-58
2021/08/05 10:57:30;;;;;;;0.50;0.50;;;;;;;;;;5037580;28;20060;-58
2021/08/05 11:00:11;;;;;;;0.95;0.50;;;;;;;;;;5028662;28;20030;-58
2021/08/05 11:02:46;;;;;;;0.28;0.28;;;;;;;;;;5033996;28;20128;-58
2021/08/05 11:05:32;;;;;;;0.30;0.30;;;;;;;;;;5031973;28;20060;-58
2021/08/05 11:08:07;;;;;;;0.63;0.40;;;;;;;;;;5039238;28;20025;-57
2021/08/05 11:10:33;;;;;;;0.45;0.45;;;;;;;;;;5035484;28;20029;-59
2021/08/05 11:13:08;;;;;;;0.30;0.30;;;;;;;;;;5050469;28;20102;-58
2021/08/05 11:15:35;;;;;;;0.30;0.30;;;;;;;;;;5032395;28;20041;-59
2021/08/05 11:20:51;;;;;;;0.50;0.30;;;;;;;;;;5039265;28;20108;-59
2021/08/05 11:23:35;;;;;;;0.40;0.40;;;;;;;;;;5032144;28;20041;-59
2021/08/05 11:26:03;;;;;;;0.38;0.30;;;;;;;;;;5033595;28;20022;-59
2021/08/05 11:28:38;;;;;;;0.30;0.30;;;;;;;;;;5037146;28;20017;-59
2021/08/05 11:31:25;;;;;;;0.25;0.25;;;;;;;;;;5031059;28;20082;-59
2021/08/05 11:33:52;;;;;;;0.20;0.20;;;;;;;;;;5028092;28;20100;-59
2021/08/05 11:36:22;;;;;;;0.30;0.30;;;;;;;;;;5042329;28;20067;-59
2021/08/05 11:38:58;;;;;;;0.30;0.30;;;;;;;;;;5044048;28;20029;-59
2021/08/05 11:41:43;;;;;;;0.20;0.20;;;;;;;;;;5037574;28;20032;-59
2021/08/05 11:44:19;;;;;;;0.20;0.20;;;;;;;;;;5031609;28;20060;-59
2021/08/05 11:46:48;;;;;;;0.38;0.20;;;;;;;;;;5046680;28;20024;-59
2021/08/05 11:49:33;;;;;;;0.20;0.20;;;;;;;;;;5036495;28;20021;-59
2021/08/05 11:51:59;;;;;;;0.63;0.50;;;;;;;;;;5034396;28;20025;-58
2021/08/05 11:54:26;;;;;;;0.43;0.35;;;;;;;;;;5033069;28;20467;-59
2021/08/05 11:56:59;;;;;;;0.38;0.38;;;;;;;;;;5035882;28;20021;-59
2021/08/05 11:59:35;;;;;;;0.50;0.50;;;;;;;;;;5027533;28;20033;-59
2021/08/05 12:02:20;;;;;;;0.40;0.40;;;;;;;;;;5049219;28;20013;-59
2021/08/05 12:04:46;;;;;;;0.63;0.40;;;;;;;;;;5046479;28;20408;-59
2021/08/05 12:07:24;;;;;;;0.40;0.40;;;;;;;;;;5037043;28;20017;-59
2021/08/05 12:10:05;;;;;;;0.35;0.35;;;;;;;;;;5030162;28;20026;-59
2021/08/05 12:13:00;;;;;;;0.20;0.20;;;;;;;;;;5029830;28;20435;-59
2021/08/05 12:15:30;;;;;;;0.30;0.30;;;;;;;;;;5033040;28;20076;-60
2021/08/05 12:18:00;;;;;;;0.28;0.25;;;;;;;;;;5036244;28;20418;-59
2021/08/05 12:20:31;;;;;;;0.30;0.30;;;;;;;;;;5037518;28;20086;-60
2021/08/05 12:23:02;;;;;;;0.20;0.20;;;;;;;;;;5033838;28;20059;-59
2021/08/05 12:25:32;;;;;;;0.30;0.30;;;;;;;;;;5031190;28;20412;-59
2021/08/05 12:28:00;;;;;;;0.30;0.30;;;;;;;;;;5045602;28;20017;-59
2021/08/05 12:30:37;;;;;;;0.20;0.20;;;;;;;;;;5028123;28;20411;-59
2021/08/05 12:33:15;;;;;;;0.30;0.30;;;;;;;;;;5045515;28;20380;-60
2021/08/05 12:35:41;;;;;;;0.30;0.30;;;;;;;;;;5033682;28;20679;-59
2021/08/05 12:38:14;;;;;;;0.30;0.30;;;;;;;;;;5029462;28;20036;-60
2021/08/05 12:40:47;;;;;;;0.40;0.40;;;;;;;;;;5033918;28;20025;-60
2021/08/05 12:43:14;;;;;;;0.30;0.30;;;;;;;;;;5034043;28;20036;-59
2021/08/05 12:45:44;;;;;;;0.30;0.30;;;;;;;;;;5035623;28;20017;-59
2021/08/05 12:48:10;;;;;;;0.30;0.30;;;;;;;;;;5040746;28;20037;-60
2021/08/05 12:50:38;;;;;;;0.30;0.30;;;;;;;;;;5031728;28;20116;-60
2021/08/05 12:53:04;;;;;;;0.35;0.30;;;;;;;;;;5024497;28;20034;-60
2021/08/05 12:55:45;;;;;;;0.52;0.30;;;;;;;;;;5024773;28;20474;-58
2021/08/05 12:58:22;;;;;;;0.50;0.40;;;;;;;;;;5024605;28;20337;-58
2021/08/05 13:00:49;;;;;;;0.38;0.38;;;;;;;;;;5024208;28;20543;-58
2021/08/05 13:03:15;;;;;;;0.20;0.20;;;;;;;;;;5033865;28;20028;-58
2021/08/05 13:05:54;;;;;;;0.30;0.30;;;;;;;;;;5047291;28;20032;-58
2021/08/05 13:08:32;;;;;;;0.30;0.30;;;;;;;;;;5055823;28;20546;-59
2021/08/05 13:10:59;;;;;;;0.30;0.30;;;;;;;;;;5062427;28;20028;-58
2021/08/05 13:14:00;;;;;;;0.90;0.32;;;;;;;;;;5034201;28;20033;-58
2021/08/05 13:16:26;;;;;;;0.32;0.32;;;;;;;;;;5040225;28;20025;-58
2021/08/05 13:18:59;;;;;;;0.70;0.30;;;;;;;;;;5035121;28;20124;-58
2021/08/05 13:21:25;;;;;;;0.40;0.40;;;;;;;;;;5032640;28;20087;-58
2021/08/05 13:23:51;;;;;;;0.30;0.30;;;;;;;;;;5045462;28;20115;-58
2021/08/05 13:26:33;;;;;;;0.40;0.40;;;;;;;;;;5061902;28;20017;-58
2021/08/05 13:29:00;;;;;;;0.40;0.40;;;;;;;;;;5046247;28;20491;-58
2021/08/05 13:31:26;;;;;;;0.30;0.30;;;;;;;;;;5060133;28;20063;-59
2021/08/05 13:34:11;;;;;;;0.30;0.30;;;;;;;;;;5052592;28;20029;-59
2021/08/05 13:36:38;;;;;;;0.40;0.40;;;;;;;;;;5035253;28;20025;-58
2021/08/05 13:39:05;;;;;;;0.22;0.22;;;;;;;;;;5043273;28;20407;-58
2021/08/05 13:41:31;;;;;;;0.30;0.30;;;;;;;;;;5027828;28;20030;-58
2021/08/05 13:44:17;;;;;;;0.30;0.30;;;;;;;;;;5023058;28;20092;-58
2021/08/05 13:55:54;;;;;;;0.90;0.40;;;;;;;;;;5028693;28;20386;-59
2021/08/05 13:58:21;;;;;;;0.30;0.30;;;;;;;;;;5045532;28;20091;-59
2021/08/05 14:00:47;;;;;;;0.25;0.25;;;;;;;;;;5028934;28;20037;-59
2021/08/05 14:03:13;;;;;;;0.30;0.30;;;;;;;;;;5026900;28;20139;-60
2021/08/05 14:05:41;;;;;;;0.32;0.32;;;;;;;;;;5026310;28;20148;-59
2021/08/05 14:08:07;;;;;;;0.20;0.20;;;;;;;;;;5025229;28;20168;-59
2021/08/05 14:10:33;;;;;;;0.30;0.30;;;;;;;;;;5025304;28;20500;-59
2021/08/05 14:13:00;;;;;;;0.30;0.30;;;;;;;;;;5026413;28;20073;-59
2021/08/05 14:15:26;;;;;;;0.30;0.30;;;;;;;;;;5025975;28;20040;-59
2021/08/05 14:17:52;;;;;;;0.32;0.30;;;;;;;;;;5035105;28;20029;-59
2021/08/05 14:20:18;;;;;;;0.30;0.30;;;;;;;;;;5047846;28;20627;-59
2021/08/05 14:22:45;;;;;;;0.30;0.30;;;;;;;;;;5047699;28;20083;-59
2021/08/05 14:25:11;;;;;;;0.30;0.30;;;;;;;;;;5048218;28;20025;-58
2021/08/05 14:27:37;;;;;;;0.35;0.35;;;;;;;;;;5048425;28;20025;-58
2021/08/05 14:33:07;;;;;;;1.00;0.30;;;;;;;;;;5044330;28;20036;-58
2021/08/05 14:35:33;;;;;;;0.30;0.30;;;;;;;;;;5047801;28;20518;-58
2021/08/05 14:37:59;;;;;;;0.30;0.30;;;;;;;;;;5045768;28;20790;-59
2021/08/05 14:40:25;;;;;;;0.30;0.30;;;;;;;;;;5045216;28;20565;-59
2021/08/05 14:42:51;;;;;;;0.40;0.40;;;;;;;;;;5049099;28;20017;-58
2021/08/05 14:45:17;;;;;;;0.30;0.30;;;;;;;;;;5036181;28;20372;-58
2021/08/05 14:47:43;;;;;;;0.60;0.52;;;;;;;;;;5028834;28;20490;-59
2021/08/05 14:50:09;;;;;;;0.30;0.30;;;;;;;;;;5046717;28;20458;-60
2021/08/05 14:52:36;;;;;;;0.50;0.50;;;;;;;;;;5045505;28;20025;-56
2021/08/05 14:55:02;;;;;;;0.40;0.40;;;;;;;;;;5047729;28;20028;-55
2021/08/05 14:57:28;;;;;;;0.40;0.40;;;;;;;;;;5049002;28;20029;-55
2021/08/05 14:59:54;;;;;;;0.47;0.47;;;;;;;;;;5047061;28;20435;-57
2021/08/05 15:02:20;;;;;;;0.65;0.40;;;;;;;;;;5050287;28;20107;-53
2021/08/05 15:04:46;;;;;;;0.43;0.43;;;;;;;;;;5047323;28;20025;-54